Time;durP1;ratioP1;P1;durP2;ratioP2;P2;SDS_P1;SDS_P2;PMS_P1;PMS_P2;Temp;Humidity;BMP_temperature;BMP_pressure;BME280_temperature;BME280_humidity;BME280_pressure;Samples;Min_cycle;Max_cycle;Signal;HPM_P1;HPM_P2
2022/06/25 00:00:57;;;;;;;5.13;4.65;;;;;;;15.01;73.79;93339.16;5152490;27;20026;-48
2022/06/25 00:03:22;;;;;;;9.75;4.18;;;;;;;14.97;72.74;93347.94;5152664;27;20121;-45
2022/06/25 00:05:48;;;;;;;4.88;4.22;;;;;;;14.79;73.45;93349.31;5152104;27;20023;-48
2022/06/25 00:08:13;;;;;;;4.57;3.78;;;;;;;14.70;74.23;93347.25;5152624;27;20019;-45
2022/06/25 00:10:39;;;;;;;5.35;4.85;;;;;;;14.67;74.05;93345.63;5152161;27;20049;-48
2022/06/25 00:13:04;;;;;;;4.90;4.43;;;;;;;14.82;73.57;93334.28;5151336;27;20038;-48
2022/06/25 00:15:30;;;;;;;7.65;4.88;;;;;;;14.60;74.43;93340.91;5151906;27;20030;-46
2022/06/25 00:17:56;;;;;;;9.20;5.10;;;;;;;14.66;74.31;93333.03;5152109;27;20026;-48
2022/06/25 00:20:21;;;;;;;5.45;4.45;;;;;;;14.40;75.46;93323.41;5151177;27;20680;-49
2022/06/25 00:22:47;;;;;;;4.95;4.40;;;;;;;14.63;74.12;93327.91;5151804;27;20026;-45
2022/06/25 00:25:12;;;;;;;5.70;4.85;;;;;;;14.51;73.69;93327.69;5152266;27;20026;-44
2022/06/25 00:27:38;;;;;;;7.47;4.35;;;;;;;14.52;74.00;93318.06;5152172;27;20531;-46
2022/06/25 00:30:07;;;;;;;6.05;5.03;;;;;;;14.50;75.10;93322.72;5151910;27;20407;-46
2022/06/25 00:32:32;;;;;;;8.70;4.90;;;;;;;14.33;74.74;93312.41;5141764;27;20038;-45
2022/06/25 00:34:58;;;;;;;8.25;5.05;;;;;;;14.33;75.01;93307.59;5149411;27;20031;-45
2022/06/25 00:37:23;;;;;;;8.07;4.70;;;;;;;14.20;75.40;93315.53;5151816;27;20098;-45
2022/06/25 00:39:50;;;;;;;5.85;4.57;;;;;;;14.07;74.84;93296.44;5151580;27;20079;-45
2022/06/25 00:42:15;;;;;;;5.70;4.32;;;;;;;14.31;74.29;93307.41;5151827;27;20033;-45
2022/06/25 00:44:41;;;;;;;11.88;4.70;;;;;;;14.34;73.88;93308.31;5151431;27;20018;-45
2022/06/25 00:47:12;;;;;;;4.65;3.97;;;;;;;14.39;74.09;93302.50;5131483;27;20517;-45
2022/06/25 00:49:38;;;;;;;4.90;4.35;;;;;;;14.46;73.55;93300.94;5089121;28;20096;-46
2022/06/25 00:52:07;;;;;;;8.60;4.68;;;;;;;14.19;73.58;93300.16;5089736;28;20520;-46
2022/06/25 00:54:33;;;;;;;;;;;;;;;14.28;73.18;93296.72;5090368;28;20111;-46
2022/06/25 00:57:00;;;;;;;4.70;4.30;;;;;;;14.23;73.09;93292.88;5088654;28;19912;-45
2022/06/25 00:59:28;;;;;;;6.20;4.30;;;;;;;14.34;73.54;93288.88;5089717;28;20589;-49
2022/06/25 01:01:53;;;;;;;4.65;4.25;;;;;;;14.23;73.60;93295.66;5089730;28;20020;-46
2022/06/25 01:04:19;;;;;;;6.00;4.60;;;;;;;14.19;74.06;93294.63;5089897;28;20023;-46
2022/06/25 01:06:45;;;;;;;8.52;3.50;;;;;;;14.21;74.14;93289.22;5108141;28;20034;-45
2022/06/25 01:09:10;;;;;;;4.78;4.10;;;;;;;14.09;74.67;93296.59;5110013;28;20409;-46
2022/06/25 01:11:36;;;;;;;4.93;4.53;;;;;;;14.22;74.56;93299.03;5109918;28;20031;-51
2022/06/25 01:14:11;;;;;;;6.50;5.32;;;;;;;14.28;72.92;93299.50;5110067;28;20028;-46
2022/06/25 01:16:37;;;;;;;6.82;4.72;;;;;;;14.26;73.63;93294.53;5109004;28;20038;-47
2022/06/25 01:19:10;;;;;;;6.43;4.80;;;;;;;14.19;74.04;93292.56;5110020;27;20028;-49
2022/06/25 01:21:37;;;;;;;12.10;5.53;;;;;;;13.83;75.11;93294.53;5109089;28;20039;-47
2022/06/25 01:24:04;;;;;;;6.50;4.32;;;;;;;13.88;75.11;93301.88;5108805;28;20085;-46
2022/06/25 01:26:32;;;;;;;7.45;4.40;;;;;;;13.95;75.06;93282.34;5109656;28;20102;-47
2022/06/25 01:28:58;;;;;;;8.17;4.60;;;;;;;13.70;75.77;93290.06;5109446;27;20024;-46
2022/06/25 01:31:23;;;;;;;6.20;4.45;;;;;;;13.58;76.50;93295.38;5109285;28;20035;-47
2022/06/25 01:33:49;;;;;;;5.13;4.30;;;;;;;13.89;75.60;93297.78;5109116;28;20042;-48
2022/06/25 01:36:14;;;;;;;6.35;4.70;;;;;;;13.74;75.50;93297.97;5109554;28;20027;-47
2022/06/25 01:38:39;;;;;;;5.78;4.60;;;;;;;13.94;75.35;93302.34;5109707;28;20034;-47
2022/06/25 01:41:05;;;;;;;6.30;4.20;;;;;;;14.01;74.73;93307.78;5109204;28;20023;-47
2022/06/25 01:43:30;;;;;;;7.43;4.22;;;;;;;13.96;74.38;93310.84;5109241;28;20039;-49
2022/06/25 01:45:56;;;;;;;6.72;4.63;;;;;;;13.64;75.52;93306.94;5109038;28;20024;-47
2022/06/25 01:48:21;;;;;;;6.82;4.20;;;;;;;13.77;75.53;93302.38;5119553;27;20047;-46
2022/06/25 01:50:48;;;;;;;4.78;4.20;;;;;;;13.71;76.68;93307.47;5129865;27;20088;-46
2022/06/25 01:53:13;;;;;;;11.18;4.15;;;;;;;13.73;75.03;93299.28;5131359;27;20519;-47
2022/06/25 01:55:39;;;;;;;8.20;4.40;;;;;;;13.46;75.74;93294.41;5129601;27;20038;-47
2022/06/25 01:58:04;;;;;;;4.10;3.70;;;;;;;13.69;75.13;93285.81;5128522;27;20138;-48
2022/06/25 02:00:31;;;;;;;5.82;3.60;;;;;;;13.63;74.21;93291.63;5129700;27;20034;-46
2022/06/25 02:02:57;;;;;;;4.80;3.72;;;;;;;13.65;74.41;93286.25;5130031;27;20031;-46
2022/06/25 02:08:10;;;;;;;8.93;4.75;;;;;;;13.78;75.13;93306.63;5129837;28;20091;-46
2022/06/25 02:10:36;;;;;;;9.23;5.05;;;;;;;13.47;76.44;93301.41;5129867;27;20031;-45
2022/06/25 02:13:01;;;;;;;4.97;4.45;;;;;;;13.42;77.28;93296.13;5129756;27;20031;-44
2022/06/25 02:15:27;;;;;;;8.45;4.63;;;;;;;13.38;77.53;93296.50;5129954;28;20034;-44
2022/06/25 02:17:52;;;;;;;5.30;4.80;;;;;;;13.40;77.58;93313.34;5129596;27;20050;-44
2022/06/25 02:20:18;;;;;;;5.72;4.22;;;;;;;13.55;75.94;93304.84;5130456;27;20019;-46
2022/06/25 02:22:43;;;;;;;4.45;3.95;;;;;;;13.55;76.38;93310.41;5150219;27;20151;-45
2022/06/25 02:25:08;;;;;;;6.00;4.35;;;;;;;13.44;76.65;93310.91;5150248;27;20407;-45
2022/06/25 02:27:34;;;;;;;13.38;5.00;;;;;;;13.59;76.57;93318.31;5150784;27;20035;-45
2022/06/25 02:30:00;;;;;;;6.57;4.75;;;;;;;13.38;77.21;93306.91;5153452;27;20064;-46
2022/06/25 02:32:26;;;;;;;5.03;4.38;;;;;;;13.48;77.73;93316.03;5152578;27;20031;-46
2022/06/25 02:34:51;;;;;;;8.95;4.90;;;;;;;13.53;78.05;93317.81;5154561;27;20480;-47
2022/06/25 02:37:16;;;;;;;9.43;5.05;;;;;;;13.74;78.08;93325.72;5136462;27;20465;-47
2022/06/25 02:39:42;;;;;;;8.23;4.45;;;;;;;13.88;76.95;93318.53;5133564;27;20016;-47
2022/06/25 02:42:07;;;;;;;5.53;4.57;;;;;;;13.94;76.47;93316.97;5133551;27;20472;-47
2022/06/25 02:44:33;;;;;;;5.13;4.00;;;;;;;13.79;77.36;93333.81;5133545;27;20407;-45
2022/06/25 02:46:58;;;;;;;10.73;4.50;;;;;;;13.85;76.57;93325.97;5133083;27;20023;-46
2022/06/25 02:49:24;;;;;;;8.10;4.40;;;;;;;13.86;75.81;93323.94;5133041;27;20047;-45
2022/06/25 02:51:49;;;;;;;5.95;4.40;;;;;;;13.85;75.82;93312.09;5133179;27;20435;-46
2022/06/25 02:54:15;;;;;;;4.95;4.45;;;;;;;13.87;76.67;93334.44;5132909;27;20540;-47
2022/06/25 02:59:24;;;;;;;7.47;4.35;;;;;;;13.97;76.28;93338.00;5133178;27;20042;-47
2022/06/25 03:01:54;;;;;;;6.07;4.20;;;;;;;14.05;75.67;93343.50;5147368;27;20097;-47
2022/06/25 03:04:20;;;;;;;6.10;3.90;;;;;;;14.04;75.84;93339.22;5153271;27;20056;-47
2022/06/25 03:06:46;;;;;;;6.10;3.83;;;;;;;14.05;76.00;93332.38;5153802;27;20483;-50
2022/06/25 03:09:11;;;;;;;5.53;4.47;;;;;;;13.89;76.02;93317.22;5153769;27;20075;-46
2022/06/25 03:11:38;;;;;;;5.15;4.55;;;;;;;13.91;76.94;93326.44;5153712;27;20109;-47
2022/06/25 03:14:03;;;;;;;4.47;4.07;;;;;;;13.87;76.80;93328.16;5153533;27;20026;-48
2022/06/25 03:16:29;;;;;;;7.88;4.25;;;;;;;13.94;76.90;93327.34;5153080;27;20189;-47
2022/06/25 03:18:54;;;;;;;6.10;4.07;;;;;;;13.99;76.44;93326.34;5153412;27;20045;-46
2022/06/25 03:21:19;;;;;;;5.78;4.38;;;;;;;14.01;77.11;93327.22;5153183;27;20034;-46
2022/06/25 03:23:45;;;;;;;6.38;4.32;;;;;;;13.99;76.67;93323.59;5153199;27;20034;-46
2022/06/25 03:26:10;;;;;;;5.75;4.25;;;;;;;13.86;76.96;93327.41;5152988;27;20037;-46
2022/06/25 03:28:36;;;;;;;4.72;4.30;;;;;;;13.94;77.18;93335.66;5153090;27;20030;-47
2022/06/25 03:31:03;;;;;;;5.03;4.47;;;;;;;13.92;77.09;93336.25;5153044;27;20547;-47
2022/06/25 03:33:28;;;;;;;5.53;4.55;;;;;;;13.88;76.26;93347.00;5149632;27;20692;-46
2022/06/25 03:35:54;;;;;;;6.15;4.18;;;;;;;13.87;76.43;93342.03;5151732;27;20031;-47
2022/06/25 03:38:19;;;;;;;4.45;3.70;;;;;;;13.95;76.84;93337.84;5153092;27;20040;-47
2022/06/25 03:40:45;;;;;;;6.65;4.47;;;;;;;13.82;77.14;93323.63;5152284;27;20038;-45
2022/06/25 03:43:10;;;;;;;4.97;4.25;;;;;;;13.78;78.00;93317.72;5152874;27;20026;-47
2022/06/25 03:45:38;;;;;;;6.63;4.78;;;;;;;13.91;78.06;93315.34;5152403;27;20037;-48
2022/06/25 03:48:03;;;;;;;7.95;4.45;;;;;;;13.94;77.69;93321.78;5152717;27;20051;-48
2022/06/25 03:50:29;;;;;;;8.30;4.88;;;;;;;14.08;78.42;93328.44;5152384;27;20718;-45
2022/06/25 03:52:54;;;;;;;4.95;4.22;;;;;;;14.17;77.99;93333.34;5152821;27;20026;-46
2022/06/25 03:55:20;;;;;;;6.13;5.53;;;;;;;14.16;77.94;93329.81;5152460;27;20018;-45
2022/06/25 03:57:45;;;;;;;10.02;6.53;;;;;;;14.20;77.99;93315.53;5152437;27;20109;-50
2022/06/25 04:00:12;;;;;;;8.38;5.88;;;;;;;14.42;77.26;93317.28;5152252;27;20023;-46
2022/06/25 04:02:38;;;;;;;8.35;6.18;;;;;;;14.58;77.53;93320.56;5151566;27;20114;-46
2022/06/25 04:05:04;;;;;;;8.45;6.40;;;;;;;14.66;77.23;93330.25;5134168;27;20114;-46
2022/06/25 04:07:29;;;;;;;12.18;6.20;;;;;;;14.72;76.06;93325.19;5152757;27;20027;-45
2022/06/25 04:09:55;;;;;;;11.10;5.93;;;;;;;14.86;75.65;93317.16;5152330;27;20026;-46
2022/06/25 04:12:21;;;;;;;10.00;6.32;;;;;;;14.75;76.63;93317.75;5152006;27;20031;-47
2022/06/25 04:14:46;;;;;;;7.85;6.82;;;;;;;14.83;77.26;93327.44;5152180;27;20022;-44
2022/06/25 04:17:12;;;;;;;9.40;6.65;;;;;;;14.93;77.36;93324.66;5152032;27;20022;-45
2022/06/25 04:19:41;;;;;;;9.70;6.60;;;;;;;14.96;77.40;93321.47;5139752;27;20037;-44
2022/06/25 04:22:10;;;;;;;12.30;6.80;;;;;;;14.93;77.10;93325.41;5151736;27;20027;-44
2022/06/25 04:24:37;;;;;;;6.82;6.15;;;;;;;14.91;78.25;93330.81;5152099;27;20069;-45
2022/06/25 04:27:03;;;;;;;6.43;5.70;;;;;;;14.90;78.35;93334.88;5151625;27;20022;-47
2022/06/25 04:29:29;;;;;;;9.57;5.93;;;;;;;14.82;79.62;93327.97;5137373;27;20030;-46
2022/06/25 04:31:55;;;;;;;10.88;6.57;;;;;;;15.06;79.48;93333.34;5146205;27;20061;-45
2022/06/25 04:34:20;;;;;;;7.05;5.60;;;;;;;15.26;78.69;93336.91;5130807;27;20027;-47
2022/06/25 04:36:46;;;;;;;6.22;5.57;;;;;;;15.46;78.80;93334.94;5131078;27;20038;-46
2022/06/25 04:39:11;;;;;;;7.78;4.72;;;;;;;15.60;78.70;93324.81;5131031;27;20027;-45
2022/06/25 04:41:37;;;;;;;6.05;4.88;;;;;;;15.77;79.48;93324.69;5130994;27;20507;-46
2022/06/25 04:44:02;;;;;;;7.18;5.00;;;;;;;15.81;79.51;93317.38;5130785;27;20515;-46
2022/06/25 04:46:31;;;;;;;4.90;4.50;;;;;;;15.95;79.42;93317.66;5130752;27;20117;-47
2022/06/25 04:48:57;;;;;;;4.82;4.25;;;;;;;16.07;78.96;93326.16;5130687;27;20100;-49
2022/06/25 04:51:23;;;;;;;6.45;5.40;;;;;;;16.18;78.76;93326.28;5130713;27;20027;-47
2022/06/25 04:53:55;;;;;;;10.80;7.93;;;;;;;16.26;78.62;93326.88;5130646;27;20019;-50
2022/06/25 04:56:28;;;;;;;24.83;8.23;;;;;;;16.32;78.25;93326.56;5130638;27;20029;-46
2022/06/25 04:58:54;;;;;;;17.67;6.20;;;;;;;16.39;78.06;93320.84;5130198;27;20102;-50
2022/06/25 05:01:19;;;;;;;7.43;5.47;;;;;;;16.39;77.48;93311.75;5147957;27;20050;-49
2022/06/25 05:03:45;;;;;;;9.10;5.22;;;;;;;16.56;77.11;93328.28;5151271;27;20495;-51
2022/06/25 05:06:10;;;;;;;7.95;5.47;;;;;;;16.62;76.15;93320.34;5151317;27;20051;-49
2022/06/25 05:08:36;;;;;;;8.02;5.28;;;;;;;16.66;76.23;93318.56;5150993;27;20023;-47
2022/06/25 05:11:02;;;;;;;15.52;5.95;;;;;;;16.78;75.57;93324.25;5151010;27;20019;-51
2022/06/25 05:13:28;;;;;;;5.65;5.15;;;;;;;16.90;75.28;93327.13;5150922;27;20027;-48
2022/06/25 05:15:54;;;;;;;6.00;4.88;;;;;;;17.07;75.15;93324.13;5151009;27;20022;-47
2022/06/25 05:18:19;;;;;;;7.45;5.10;;;;;;;17.23;74.80;93337.13;5149302;27;20023;-45
2022/06/25 05:20:45;;;;;;;11.60;5.20;;;;;;;17.23;73.65;93339.19;5150698;27;20034;-44
2022/06/25 05:23:11;;;;;;;5.43;4.88;;;;;;;17.26;74.44;93346.38;5151259;27;20027;-46
2022/06/25 05:25:36;;;;;;;5.78;5.28;;;;;;;17.19;75.11;93342.44;5150207;27;20027;-46
2022/06/25 05:28:03;;;;;;;5.55;5.00;;;;;;;17.28;75.29;93349.28;5150501;27;20654;-48
2022/06/25 05:30:28;;;;;;;10.55;5.38;;;;;;;17.33;75.87;93351.75;5150701;27;20110;-47
2022/06/25 05:32:54;;;;;;;7.55;5.45;;;;;;;17.52;75.83;93359.31;5137372;27;20102;-47
2022/06/25 05:35:19;;;;;;;4.85;4.20;;;;;;;17.62;75.40;93348.81;5148094;27;20023;-48
2022/06/25 05:37:45;;;;;;;7.03;4.88;;;;;;;17.77;74.70;93359.59;5150836;27;20430;-47
2022/06/25 05:40:11;;;;;;;5.07;4.57;;;;;;;17.93;74.68;93357.84;5150220;27;20018;-45
2022/06/25 05:42:36;;;;;;;4.95;4.55;;;;;;;17.96;73.66;93356.66;5150189;27;20517;-47
2022/06/25 05:45:03;;;;;;;12.90;4.78;;;;;;;17.92;72.70;93352.88;5150736;27;20018;-45
2022/06/25 05:47:28;;;;;;;4.82;4.35;;;;;;;18.08;73.90;93348.34;5149968;27;20634;-45
2022/06/25 05:49:54;;;;;;;8.70;4.97;;;;;;;18.28;73.26;93355.22;5150396;27;20018;-46
2022/06/25 05:52:19;;;;;;;6.05;4.70;;;;;;;18.53;73.48;93360.31;5148541;27;20453;-49
2022/06/25 05:54:44;;;;;;;5.38;4.53;;;;;;;18.71;72.28;93362.19;5149729;27;20023;-46
2022/06/25 05:57:10;;;;;;;8.30;4.38;;;;;;;18.86;70.19;93349.84;5149637;27;20079;-47
2022/06/25 05:59:36;;;;;;;4.82;3.90;;;;;;;18.98;67.68;93353.38;5150024;27;20105;-46
2022/06/25 06:02:01;;;;;;;6.82;4.30;;;;;;;19.15;68.22;93360.66;5149367;27;20415;-48
2022/06/25 06:04:26;;;;;;;6.43;4.40;;;;;;;19.30;68.41;93363.00;5149909;27;20027;-48
2022/06/25 06:06:52;;;;;;;8.13;4.30;;;;;;;19.40;67.45;93344.78;5150097;27;20030;-49
2022/06/25 06:09:18;;;;;;;4.80;4.30;;;;;;;19.49;66.13;93357.91;5131537;27;20113;-48
2022/06/25 06:11:43;;;;;;;6.13;4.30;;;;;;;19.66;65.25;93354.72;5149804;27;20015;-50
2022/06/25 06:14:09;;;;;;;7.15;4.00;;;;;;;19.72;65.83;93354.34;5149694;27;20015;-48
2022/06/25 06:16:35;;;;;;;9.85;4.70;;;;;;;19.75;66.60;93355.22;5150035;27;20058;-47
2022/06/25 06:19:00;;;;;;;5.00;4.60;;;;;;;19.74;65.87;93356.53;5150288;27;20706;-51
2022/06/25 06:21:26;;;;;;;4.68;4.20;;;;;;;19.74;66.09;93350.94;5150104;27;20034;-49
2022/06/25 06:23:52;;;;;;;4.78;4.10;;;;;;;19.63;65.54;93344.00;5150109;27;20102;-47
2022/06/25 06:26:17;;;;;;;5.50;4.28;;;;;;;19.58;66.38;93348.66;5148485;27;20522;-47
2022/06/25 06:28:43;;;;;;;5.05;4.55;;;;;;;19.60;64.58;93348.75;5150374;27;20022;-48
2022/06/25 06:31:09;;;;;;;7.70;5.25;;;;;;;19.56;62.50;93328.91;5150298;27;20510;-51
2022/06/25 06:33:35;;;;;;;12.25;7.22;;;;;;;19.69;63.49;93349.97;5131110;27;20035;-47
2022/06/25 06:36:01;;;;;;;10.90;6.57;;;;;;;19.85;64.96;93344.59;5130491;27;20028;-50
2022/06/25 06:38:26;;;;;;;7.40;5.53;;;;;;;19.97;62.90;93332.00;5143602;27;20054;-47
2022/06/25 06:40:52;;;;;;;9.63;5.78;;;;;;;20.18;62.61;93334.59;5150185;27;20086;-49
2022/06/25 06:43:17;;;;;;;5.60;5.00;;;;;;;20.42;62.63;93338.81;5150079;27;20463;-49
2022/06/25 06:45:43;;;;;;;6.85;4.85;;;;;;;20.62;62.33;93344.81;5149805;27;20026;-49
2022/06/25 06:48:08;;;;;;;4.20;3.80;;;;;;;20.74;60.36;93333.53;5148953;27;20075;-48
2022/06/25 06:50:34;;;;;;;9.05;4.45;;;;;;;20.84;59.87;93334.06;5149760;27;20049;-49
2022/06/25 06:52:59;;;;;;;11.45;4.60;;;;;;;20.92;60.50;93338.03;5150623;27;20431;-50
2022/06/25 06:55:25;;;;;;;4.60;3.75;;;;;;;20.99;58.53;93341.91;5149969;27;20070;-48
2022/06/25 06:57:50;;;;;;;5.78;3.72;;;;;;;21.16;58.14;93340.72;5149637;27;20019;-46
2022/06/25 07:00:17;;;;;;;3.80;3.45;;;;;;;21.31;59.10;93342.94;5148838;27;20026;-46
2022/06/25 07:02:43;;;;;;;3.80;3.50;;;;;;;21.50;59.49;93339.72;5149401;27;20058;-47
2022/06/25 07:05:08;;;;;;;4.95;3.50;;;;;;;21.55;60.98;93339.28;5149474;27;20054;-50
2022/06/25 07:07:34;;;;;;;4.22;3.83;;;;;;;21.62;62.22;93340.34;5149886;27;20162;-51
2022/06/25 07:09:59;;;;;;;4.00;3.58;;;;;;;21.64;62.13;93332.00;5149714;27;20044;-50
2022/06/25 07:12:25;;;;;;;4.18;3.70;;;;;;;21.73;61.29;93334.63;5148634;27;20799;-49
2022/06/25 07:14:50;;;;;;;7.40;3.60;;;;;;;22.03;62.34;93335.44;5150870;27;20049;-51
2022/06/25 07:17:16;;;;;;;4.45;3.58;;;;;;;22.40;58.84;93337.94;5153159;27;20027;-47
2022/06/25 07:19:41;;;;;;;3.80;3.30;;;;;;;22.55;58.05;93343.63;5153222;27;20018;-47
2022/06/25 07:22:07;;;;;;;7.18;4.30;;;;;;;22.88;59.15;93336.75;5136260;27;20026;-49
2022/06/25 07:24:32;;;;;;;4.82;3.17;;;;;;;23.37;57.74;93334.81;5132265;27;20023;-50
2022/06/25 07:26:58;;;;;;;3.22;2.83;;;;;;;24.00;55.04;93339.00;5131564;27;20031;-47
2022/06/25 07:29:23;;;;;;;3.63;3.05;;;;;;;24.49;52.30;93335.41;5137181;27;20026;-48
2022/06/25 07:31:49;;;;;;;5.88;3.58;;;;;;;24.92;52.56;93338.59;5150880;27;20050;-48
2022/06/25 07:34:16;;;;;;;3.30;3.00;;;;;;;25.20;50.72;93345.34;5143896;27;20503;-47
2022/06/25 07:36:41;;;;;;;4.53;3.58;;;;;;;25.73;49.64;93338.84;5148334;27;20030;-51
2022/06/25 07:39:08;;;;;;;3.35;2.97;;;;;;;26.04;47.91;93324.38;5144429;27;20015;-48
2022/06/25 07:41:33;;;;;;;6.95;3.58;;;;;;;26.28;49.19;93345.03;5148640;27;20026;-51
2022/06/25 07:43:59;;;;;;;5.00;3.40;;;;;;;26.18;46.84;93350.38;5138220;27;20447;-49
2022/06/25 07:46:24;;;;;;;5.57;3.47;;;;;;;26.17;48.62;93346.06;5150469;27;20030;-50
2022/06/25 07:48:50;;;;;;;7.97;3.40;;;;;;;26.19;50.07;93346.16;5149741;27;20051;-51
2022/06/25 07:53:59;;;;;;;4.55;3.70;;;;;;;26.88;49.68;93335.72;5152882;27;20034;-48
2022/06/25 07:56:25;;;;;;;5.63;3.25;;;;;;;27.60;46.49;93337.25;5152790;27;20027;-52
2022/06/25 07:58:50;;;;;;;5.18;3.35;;;;;;;28.18;46.40;93332.50;5136135;27;20034;-48
2022/06/25 08:01:16;;;;;;;18.20;4.97;;;;;;;28.99;44.72;93345.94;5148321;27;20022;-50
2022/06/25 08:03:41;;;;;;;6.95;3.20;;;;;;;29.71;43.15;93338.34;5147907;27;20054;-47
2022/06/25 08:06:07;;;;;;;4.13;3.25;;;;;;;29.38;43.19;93344.72;5144078;27;20097;-48
2022/06/25 08:08:33;;;;;;;6.32;3.72;;;;;;;29.57;43.63;93355.09;5148280;27;20022;-49
2022/06/25 08:10:59;;;;;;;4.93;3.25;;;;;;;29.48;42.92;93353.47;5147979;27;20102;-49
2022/06/25 08:13:26;;;;;;;3.88;3.33;;;;;;;29.63;43.91;93358.06;5148503;27;20103;-50
2022/06/25 08:15:52;;;;;;;10.80;3.88;;;;;;;29.68;43.60;93348.97;5148628;27;20079;-51
2022/06/25 08:18:17;;;;;;;4.65;3.17;;;;;;;29.41;43.37;93355.47;5144578;27;20026;-49
2022/06/25 08:20:43;;;;;;;4.00;3.60;;;;;;;28.54;44.60;93349.78;5146920;27;20018;-52
2022/06/25 08:23:09;;;;;;;4.72;3.08;;;;;;;28.43;45.28;93354.47;5147265;27;20023;-47
2022/06/25 08:25:34;;;;;;;11.63;4.25;;;;;;;27.87;46.34;93352.19;5148520;27;20026;-50
2022/06/25 08:27:59;;;;;;;4.25;3.78;;;;;;;27.62;47.66;93353.59;5148707;27;20145;-52
2022/06/25 08:30:26;;;;;;;4.45;4.05;;;;;;;27.38;47.48;93344.38;5148492;27;20074;-48
2022/06/25 08:32:53;;;;;;;8.32;5.28;;;;;;;27.44;47.70;93353.78;5140757;27;20026;-50
2022/06/25 08:35:18;;;;;;;4.90;3.75;;;;;;;27.86;46.17;93348.63;5147774;27;20034;-47
2022/06/25 08:37:49;;;;;;;6.50;3.50;;;;;;;28.72;45.71;93344.56;5145849;27;20041;-49
2022/06/25 08:40:17;;;;;;;6.43;3.70;;;;;;;29.43;43.73;93346.28;5149166;27;20038;-48
2022/06/25 08:42:42;;;;;;;4.93;3.30;;;;;;;30.03;41.35;93350.44;5148741;27;20018;-51
2022/06/25 08:45:08;;;;;;;4.95;3.25;;;;;;;30.90;40.32;93344.25;5148455;27;20515;-52
2022/06/25 08:47:35;;;;;;;3.83;3.42;;;;;;;31.91;39.64;93345.72;5148832;27;20053;-55
2022/06/25 08:50:00;;;;;;;4.13;3.28;;;;;;;32.01;36.98;93349.47;5148852;27;20019;-52
2022/06/25 08:52:29;;;;;;;7.13;3.33;;;;;;;32.24;36.46;93347.59;5129113;27;20114;-51
2022/06/25 08:54:55;;;;;;;9.63;3.40;;;;;;;32.79;34.79;93349.63;5124044;27;20649;-51
2022/06/25 08:57:21;;;;;;;7.57;3.72;;;;;;;33.02;36.71;93339.13;5148472;27;20027;-49
2022/06/25 08:59:47;;;;;;;4.03;3.67;;;;;;;34.02;34.69;93333.41;5148298;27;20053;-54
2022/06/25 09:02:13;;;;;;;7.55;3.63;;;;;;;34.86;33.15;93335.09;5129831;27;20127;-52
2022/06/25 09:04:38;;;;;;;4.13;2.80;;;;;;;35.07;30.12;93339.44;5148592;27;20590;-52
2022/06/25 09:07:18;;;;;;;6.40;4.18;;;;;;;34.73;31.04;93348.69;5147825;27;20022;-53
2022/06/25 09:09:49;;;;;;;4.10;2.60;;;;;;;34.64;31.71;93346.50;5137964;27;20030;-47
2022/06/25 09:12:16;;;;;;;3.92;2.80;;;;;;;34.47;31.36;93347.88;5146199;27;20038;-49
2022/06/25 09:14:41;;;;;;;3.50;3.20;;;;;;;34.26;31.82;93349.97;5148132;27;20030;-50
2022/06/25 09:17:12;;;;;;;6.28;3.78;;;;;;;34.06;33.70;93353.47;5148184;27;20066;-50
2022/06/25 09:19:41;;;;;;;3.50;3.20;;;;;;;35.01;31.69;93348.75;5147910;27;20033;-50
2022/06/25 09:22:20;;;;;;;7.43;3.40;;;;;;;35.88;30.26;93348.00;5147300;27;20027;-49
2022/06/25 09:24:57;;;;;;;4.13;2.83;;;;;;;36.39;29.51;93347.09;5146907;27;20030;-50
2022/06/25 09:27:33;;;;;;;6.65;3.47;;;;;;;37.18;27.36;93352.44;5144751;27;20026;-53
2022/06/25 09:30:09;;;;;;;5.43;3.20;;;;;;;38.09;25.46;93343.00;5149109;27;20027;-51
2022/06/25 09:32:45;;;;;;;4.70;3.65;;;;;;;38.58;24.09;93361.16;5136222;27;20030;-50
2022/06/25 09:35:12;;;;;;;5.53;2.60;;;;;;;38.99;23.61;93361.34;5138244;27;20385;-50
2022/06/25 09:37:38;;;;;;;7.10;3.67;;;;;;;38.72;24.66;93348.75;5149481;27;20022;-50
2022/06/25 09:40:04;;;;;;;4.15;2.45;;;;;;;38.29;24.38;93368.75;5149799;27;20380;-51
2022/06/25 09:42:32;;;;;;;3.65;2.80;;;;;;;37.39;26.13;93373.91;5149407;27;20551;-52
2022/06/25 09:45:06;;;;;;;3.40;2.72;;;;;;;37.14;27.07;93358.94;5149654;27;20093;-52
2022/06/25 09:47:39;;;;;;;6.43;3.08;;;;;;;37.67;25.92;93367.16;5148294;27;20045;-49
2022/06/25 09:50:19;;;;;;;7.40;4.07;;;;;;;38.17;25.71;93363.81;5149205;27;20014;-51
2022/06/25 09:52:59;;;;;;;3.28;2.95;;;;;;;38.99;24.50;93359.19;5144982;27;20018;-53
2022/06/25 09:55:30;;;;;;;6.57;3.53;;;;;;;39.50;23.99;93362.03;5138693;27;20037;-54
2022/06/25 09:57:55;;;;;;;4.57;2.97;;;;;;;39.92;23.88;93354.81;5139867;27;20022;-49
2022/06/25 10:00:23;;;;;;;3.53;2.78;;;;;;;40.04;21.53;93355.38;5146800;27;20543;-50
2022/06/25 10:02:50;;;;;;;5.43;3.03;;;;;;;39.99;22.27;93354.00;5149317;27;20023;-49
2022/06/25 10:05:38;;;;;;;4.93;2.55;;;;;;;38.95;23.14;93350.59;5142470;27;20034;-47
2022/06/25 10:08:04;;;;;;;;;;;;;;;37.74;24.88;93346.22;5122470;27;20038;-50
2022/06/25 10:10:41;;;;;;;5.43;3.88;;;;;;;35.91;27.65;93330.00;5129668;27;19930;-52
2022/06/25 10:13:07;;;;;;;5.57;3.53;;;;;;;35.46;28.18;93323.63;5141070;27;20022;-50
2022/06/25 10:15:33;;;;;;;4.30;3.88;;;;;;;35.49;29.25;93342.31;5144505;27;20045;-47
2022/06/25 10:18:09;;;;;;;4.07;3.58;;;;;;;35.89;29.18;93343.69;5149614;27;20011;-48
2022/06/25 10:20:35;;;;;;;5.28;3.78;;;;;;;36.30;29.21;93347.88;5144757;27;20026;-50
2022/06/25 10:23:03;;;;;;;6.53;3.10;;;;;;;37.09;28.83;93346.03;5149974;27;20100;-47
2022/06/25 10:25:29;;;;;;;7.40;3.55;;;;;;;37.97;27.25;93343.84;5129547;28;20516;-50
2022/06/25 10:28:14;;;;;;;4.18;3.53;;;;;;;38.67;25.38;93339.41;5123844;28;20038;-50
2022/06/25 10:30:51;;;;;;;6.93;4.10;;;;;;;39.40;24.95;93341.97;5129668;28;20587;-48
2022/06/25 10:33:22;;;;;;;4.43;3.10;;;;;;;39.28;24.82;93328.44;5129101;27;20027;-50
2022/06/25 10:35:49;;;;;;;5.80;3.72;;;;;;;39.24;23.22;93334.31;5129373;27;20111;-48
2022/06/25 10:38:21;;;;;;;4.53;3.27;;;;;;;39.19;24.97;93332.94;5129387;27;20030;-50
2022/06/25 10:43:50;;;;;;;6.45;3.65;;;;;;;39.54;24.62;93341.03;5129781;28;20079;-50
2022/06/25 10:46:24;;;;;;;5.32;3.50;;;;;;;39.46;24.55;93336.09;5128974;27;20031;-48
2022/06/25 10:49:10;;;;;;;4.95;3.50;;;;;;;38.75;25.18;93335.75;5130290;27;20046;-52
2022/06/25 10:51:38;;;;;;;10.43;3.80;;;;;;;38.78;25.19;93340.00;5133370;27;20033;-47
2022/06/25 10:54:04;;;;;;;;;;;;;;;38.53;25.44;93336.72;5133597;27;20072;-48
2022/06/25 10:56:43;;;;;;;3.58;3.28;;;;;;;37.60;25.19;93340.59;5133337;27;19907;-50
2022/06/25 10:59:09;;;;;;;5.03;3.50;;;;;;;36.54;25.98;93316.13;5133219;27;20133;-47
2022/06/25 11:01:34;;;;;;;8.82;3.63;;;;;;;36.71;28.18;93331.84;5133158;27;20529;-49
2022/06/25 11:04:02;;;;;;;3.90;3.60;;;;;;;36.60;27.96;93336.25;5133214;27;20543;-51
2022/06/25 11:06:35;;;;;;;5.80;4.25;;;;;;;36.44;28.37;93330.59;5133392;27;20027;-48
2022/06/25 11:09:07;;;;;;;5.30;3.72;;;;;;;36.78;27.63;93330.38;5132850;27;20025;-49
2022/06/25 11:11:33;;;;;;;4.38;3.97;;;;;;;36.50;28.13;93324.78;5132677;27;20046;-47
2022/06/25 11:14:01;;;;;;;4.43;3.80;;;;;;;36.59;27.61;93323.31;5145509;27;20027;-47
2022/06/25 11:16:27;;;;;;;10.57;4.60;;;;;;;36.64;28.76;93301.00;5140897;27;20106;-46
2022/06/25 11:18:55;;;;;;;6.40;3.92;;;;;;;36.24;28.83;93316.25;5153218;27;20067;-50
2022/06/25 11:21:29;;;;;;;4.75;3.60;;;;;;;36.06;30.14;93319.94;5142606;27;20015;-48
2022/06/25 11:24:18;;;;;;;5.90;3.75;;;;;;;35.73;28.71;93313.56;5132516;27;20027;-47
2022/06/25 11:29:47;;;;;;;12.05;4.50;;;;;;;35.00;30.32;93292.78;5148685;27;20098;-48
2022/06/25 11:32:22;;;;;;;5.60;3.92;;;;;;;34.81;32.23;93308.53;5132830;27;20454;-51
2022/06/25 11:34:52;;;;;;;10.02;3.90;;;;;;;34.96;31.57;93301.38;5132571;27;20023;-52
2022/06/25 11:37:18;;;;;;;4.55;3.67;;;;;;;34.75;29.71;93293.47;5132239;27;20500;-48
2022/06/25 11:39:45;;;;;;;4.63;3.75;;;;;;;34.61;30.98;93288.44;5132071;27;20404;-48
2022/06/25 11:42:11;;;;;;;6.10;4.28;;;;;;;33.77;32.34;93290.97;5132219;27;20019;-50
2022/06/25 11:44:38;;;;;;;9.38;7.43;;;;;;;33.18;34.39;93289.91;5131998;27;20094;-49
2022/06/25 11:47:04;;;;;;;6.10;4.97;;;;;;;32.43;34.43;93306.38;5132252;27;20105;-47